Time;durP1;ratioP1;P1;durP2;ratioP2;P2;SDS_P1;SDS_P2;PMS_P1;PMS_P2;Temp;Humidity;BMP_temperature;BMP_pressure;BME280_temperature;BME280_humidity;BME280_pressure;Samples;Min_cycle;Max_cycle;Signal;HPM_P1;HPM_P2
2022/03/22 00:00:33;;;;;;;35.97;22.77;;;9.10;98.30;;;;;;5055604;28;20093;-65
2022/03/22 00:02:58;;;;;;;35.95;22.58;;;9.00;98.50;;;;;;5073066;28;20024;-65
2022/03/22 00:05:24;;;;;;;38.47;24.02;;;9.00;98.90;;;;;;5073353;28;20028;-64
2022/03/22 00:07:51;;;;;;;40.92;25.40;;;9.00;99.00;;;;;;5071911;28;20021;-64
2022/03/22 00:10:16;;;;;;;40.35;23.80;;;9.00;98.90;;;;;;5071349;28;20047;-64
2022/03/22 00:12:42;;;;;;;53.42;25.10;;;8.90;99.10;;;;;;5054206;28;20025;-64
2022/03/22 00:15:09;;;;;;;53.58;25.38;;;8.90;99.50;;;;;;5071796;28;20021;-64
2022/03/22 00:17:36;;;;;;;47.00;24.33;;;8.80;99.90;;;;;;5072125;28;20036;-64
2022/03/22 00:20:02;;;;;;;52.58;25.00;;;8.70;99.90;;;;;;5072084;28;20427;-64
2022/03/22 00:22:28;;;;;;;54.55;28.48;;;8.80;99.90;;;;;;5072436;28;20035;-64
2022/03/22 00:24:54;;;;;;;46.97;26.02;;;8.70;99.90;;;;;;5054658;28;20028;-64
2022/03/22 00:27:20;;;;;;;48.28;23.65;;;8.70;99.90;;;;;;5071444;28;20016;-65
2022/03/22 00:29:46;;;;;;;43.42;24.38;;;8.70;99.90;;;;;;5080557;28;20555;-64
2022/03/22 00:32:12;;;;;;;42.65;23.67;;;8.60;99.90;;;;;;5092051;28;20031;-64
2022/03/22 00:34:44;;;;;;;46.78;26.38;;;8.60;99.90;;;;;;4710740;28;10000287;-64
2022/03/22 00:37:17;;;;;;;40.72;24.75;;;8.60;99.90;;;;;;5070814;28;20031;-64
2022/03/22 00:39:45;;;;;;;44.55;25.70;;;8.60;99.90;;;;;;5066686;28;20025;-64
2022/03/22 00:42:11;;;;;;;42.72;25.13;;;8.50;99.90;;;;;;5073052;28;20029;-64
2022/03/22 00:44:38;;;;;;;46.13;24.50;;;8.50;99.90;;;;;;5054362;28;20074;-64
2022/03/22 00:47:06;;;;;;;39.38;23.48;;;8.50;99.90;;;;;;5073293;28;20093;-64
2022/03/22 00:49:33;;;;;;;47.58;24.73;;;8.50;99.90;;;;;;5055187;28;20677;-64
2022/03/22 00:52:01;;;;;;;40.08;25.05;;;8.50;99.90;;;;;;5072867;28;20024;-64
2022/03/22 00:54:28;;;;;;;43.45;24.58;;;8.50;99.90;;;;;;5099427;22;20446;-65
2022/03/22 00:56:54;;;;;;;37.65;23.70;;;8.50;99.90;;;;;;5089945;28;20504;-66
2022/03/22 01:00:20;;;;;;;42.65;24.10;;;8.40;99.90;;;;;;5090034;28;20032;-64
2022/03/22 01:02:15;;;;;;;50.20;25.33;;;8.40;99.90;;;;;;5073710;28;20492;-63
2022/03/22 01:04:43;;;;;;;42.95;25.35;;;8.30;99.90;;;;;;5091388;28;20091;-63
2022/03/22 01:07:08;;;;;;;42.63;25.03;;;8.30;99.90;;;;;;5091507;28;20492;-64
2022/03/22 01:09:34;;;;;;;44.75;23.67;;;8.30;99.90;;;;;;5091541;28;20103;-64
2022/03/22 01:11:59;;;;;;;39.58;24.13;;;8.20;99.90;;;;;;5091550;28;20085;-64
2022/03/22 01:14:28;;;;;;;42.67;24.10;;;8.20;99.90;;;;;;5073432;28;20077;-63
2022/03/22 01:16:55;;;;;;;42.85;23.35;;;8.10;99.90;;;;;;5073579;28;20118;-63
2022/03/22 01:19:21;;;;;;;37.03;23.65;;;8.10;99.90;;;;;;5091646;28;20024;-63
2022/03/22 01:21:48;;;;;;;36.63;22.45;;;8.10;99.90;;;;;;5091626;28;20099;-66
2022/03/22 01:24:13;;;;;;;39.05;22.98;;;8.10;99.90;;;;;;5090745;28;20484;-63
2022/03/22 01:26:39;;;;;;;38.85;23.65;;;8.00;99.90;;;;;;5072700;28;20027;-66
2022/03/22 01:29:05;;;;;;;37.88;23.10;;;8.00;99.90;;;;;;5072502;28;20388;-66
2022/03/22 01:31:30;;;;;;;42.75;26.83;;;8.00;99.90;;;;;;5090714;28;20020;-66
2022/03/22 01:33:56;;;;;;;40.30;24.35;;;8.00;99.90;;;;;;5091104;28;20024;-65
2022/03/22 01:36:21;;;;;;;43.80;24.88;;;8.00;99.90;;;;;;5072595;28;20055;-66
2022/03/22 01:38:47;;;;;;;39.50;24.60;;;7.90;99.90;;;;;;5090904;28;20031;-65
2022/03/22 01:41:13;;;;;;;37.63;25.23;;;7.90;99.90;;;;;;5090972;28;20217;-64
2022/03/22 01:43:39;;;;;;;38.75;23.55;;;7.80;99.90;;;;;;5075077;28;20020;-67
2022/03/22 01:46:04;;;;;;;38.75;25.15;;;7.80;99.90;;;;;;5094813;28;20422;-66
2022/03/22 01:48:30;;;;;;;40.53;23.38;;;7.80;99.90;;;;;;5077356;28;20027;-66
2022/03/22 01:50:56;;;;;;;38.25;25.00;;;7.90;99.90;;;;;;5076713;28;20123;-66
2022/03/22 01:53:22;;;;;;;40.30;23.73;;;7.90;99.90;;;;;;5095147;28;20487;-65
2022/03/22 01:55:48;;;;;;;41.60;22.92;;;7.80;99.90;;;;;;5076385;28;20035;-67
2022/03/22 01:58:14;;;;;;;35.75;22.65;;;7.80;99.90;;;;;;5094730;28;20036;-66
2022/03/22 02:00:40;;;;;;;38.80;23.23;;;7.70;99.90;;;;;;5094575;28;20017;-67
2022/03/22 02:05:51;;;;;;;36.50;23.00;;;7.60;99.90;;;;;;5094692;28;20039;-66
2022/03/22 02:08:18;;;;;;;40.20;22.75;;;7.60;99.90;;;;;;5095309;28;20020;-66
2022/03/22 02:10:44;;;;;;;42.08;22.55;;;7.50;99.90;;;;;;5076851;28;20024;-66
2022/03/22 02:13:10;;;;;;;35.83;21.67;;;7.60;99.90;;;;;;5094755;28;20031;-65
2022/03/22 02:15:35;;;;;;;36.35;21.92;;;7.50;99.90;;;;;;5076653;28;20020;-66
2022/03/22 02:18:01;;;;;;;35.53;22.50;;;7.50;99.90;;;;;;5095363;28;20040;-66
2022/03/22 02:20:28;;;;;;;36.33;21.63;;;7.50;99.90;;;;;;5094692;28;20032;-66
2022/03/22 02:23:13;;;;;;;44.80;22.60;;;7.50;99.90;;;;;;5076874;28;20028;-66
2022/03/22 02:25:38;;;;;;;35.20;21.65;;;7.50;99.90;;;;;;5094560;28;20467;-65
2022/03/22 02:28:05;;;;;;;34.90;21.73;;;7.40;99.90;;;;;;5094321;28;20035;-64
2022/03/22 02:30:31;;;;;;;41.50;23.27;;;7.40;99.90;;;;;;5076488;28;20031;-65
2022/03/22 02:33:00;;;;;;;38.72;22.23;;;7.40;99.90;;;;;;5094689;28;20088;-66
2022/03/22 02:35:28;;;;;;;35.03;21.63;;;7.40;99.90;;;;;;5094327;28;20103;-63
2022/03/22 02:37:54;;;;;;;37.42;23.05;;;7.40;99.90;;;;;;5094685;28;20032;-67
2022/03/22 02:40:20;;;;;;;35.35;20.60;;;7.40;99.90;;;;;;5076188;28;20068;-64
2022/03/22 02:42:53;;;;;;;37.15;22.60;;;7.40;99.90;;;;;;5094410;28;20176;-67
2022/03/22 02:45:23;;;;;;;35.13;21.60;;;7.30;99.90;;;;;;5094429;28;20041;-65
2022/03/22 02:47:49;;;;;;;35.30;22.15;;;7.30;99.90;;;;;;5094188;28;20495;-65
2022/03/22 02:50:14;;;;;;;35.72;21.30;;;7.30;99.90;;;;;;5075951;28;20020;-66
2022/03/22 02:52:41;;;;;;;36.08;22.05;;;7.30;99.90;;;;;;5076008;28;20161;-65
2022/03/22 02:55:09;;;;;;;37.30;21.88;;;7.30;99.90;;;;;;5092593;28;20032;-64
2022/03/22 02:57:37;;;;;;;41.47;22.90;;;7.30;99.90;;;;;;5076097;28;20137;-66
2022/03/22 03:00:05;;;;;;;38.40;22.88;;;7.20;99.90;;;;;;5093513;28;20024;-66
2022/03/22 03:02:31;;;;;;;;;;;7.10;99.90;;;;;;5094019;28;20035;-64
2022/03/22 03:04:56;;;;;;;39.97;23.13;;;7.10;99.90;;;;;;5093398;28;20322;-66
2022/03/22 03:07:22;;;;;;;39.63;23.50;;;7.10;99.90;;;;;;5093539;28;20020;-64
2022/03/22 03:09:48;;;;;;;38.17;21.55;;;7.00;99.90;;;;;;5093556;28;20081;-66
2022/03/22 03:12:14;;;;;;;40.38;23.52;;;7.00;99.90;;;;;;5075277;28;20071;-67
2022/03/22 03:14:43;;;;;;;39.65;24.73;;;7.00;99.90;;;;;;5075301;28;20028;-66
2022/03/22 03:17:16;;;;;;;39.05;23.50;;;7.00;99.90;;;;;;5093691;28;20020;-65
2022/03/22 03:19:42;;;;;;;40.03;23.88;;;6.90;99.90;;;;;;5093457;28;20028;-64
2022/03/22 03:22:08;;;;;;;38.13;22.50;;;6.90;99.90;;;;;;5093431;28;20032;-64
2022/03/22 03:24:35;;;;;;;35.38;22.90;;;6.80;99.90;;;;;;5074822;28;20492;-64
2022/03/22 03:27:02;;;;;;;39.05;23.00;;;6.80;99.90;;;;;;5093050;28;20020;-64
2022/03/22 03:29:28;;;;;;;34.15;22.27;;;6.80;99.90;;;;;;5074809;28;20392;-64
2022/03/22 03:31:54;;;;;;;36.28;22.20;;;6.80;99.90;;;;;;5093042;28;20032;-64
2022/03/22 03:34:20;;;;;;;41.70;21.85;;;6.70;99.90;;;;;;5092987;28;20031;-65
2022/03/22 03:36:46;;;;;;;38.30;22.17;;;6.70;99.90;;;;;;5092943;28;20073;-65
2022/03/22 03:39:11;;;;;;;38.10;22.90;;;6.70;99.90;;;;;;5093048;28;20110;-66
2022/03/22 03:41:53;;;;;;;37.80;21.35;;;6.70;99.90;;;;;;5093170;28;20104;-65
2022/03/22 03:47:05;;;;;;;37.38;22.88;;;6.70;99.90;;;;;;5092931;28;20044;-66
2022/03/22 03:49:39;;;;;;;35.53;21.52;;;6.70;99.90;;;;;;5092574;28;20012;-66
2022/03/22 03:52:07;;;;;;;33.30;20.67;;;6.70;99.90;;;;;;5092250;28;20039;-65
2022/03/22 03:54:34;;;;;;;35.60;20.75;;;6.80;99.90;;;;;;5092794;28;20484;-66
2022/03/22 03:57:00;;;;;;;38.63;23.02;;;6.60;99.90;;;;;;5074847;28;20028;-66
2022/03/22 03:59:25;;;;;;;38.47;22.58;;;6.60;99.90;;;;;;5092642;28;20020;-66
2022/03/22 04:01:51;;;;;;;38.78;22.10;;;6.60;99.90;;;;;;5074502;28;20498;-66
2022/03/22 04:04:17;;;;;;;34.90;22.13;;;6.60;99.90;;;;;;5092803;28;20049;-66
2022/03/22 04:06:42;;;;;;;37.53;23.48;;;6.60;99.90;;;;;;5092384;28;20023;-66
2022/03/22 04:09:08;;;;;;;36.33;21.52;;;6.60;99.90;;;;;;5074122;28;20092;-66
2022/03/22 04:11:33;;;;;;;39.92;23.13;;;6.60;99.90;;;;;;5092076;28;20082;-66
2022/03/22 04:13:59;;;;;;;43.53;22.58;;;6.60;99.90;;;;;;5073903;28;20048;-66
2022/03/22 04:16:24;;;;;;;38.38;22.45;;;6.60;99.90;;;;;;5073731;28;20431;-66
2022/03/22 04:18:50;;;;;;;36.15;21.98;;;6.60;99.90;;;;;;5073663;28;20064;-66
2022/03/22 04:21:16;;;;;;;34.97;22.95;;;6.60;99.90;;;;;;5073683;28;20145;-66
2022/03/22 04:23:42;;;;;;;37.40;22.40;;;6.60;99.90;;;;;;5091939;28;20027;-66
2022/03/22 04:26:08;;;;;;;38.13;23.25;;;6.50;99.90;;;;;;5091683;28;20028;-66
2022/03/22 04:34:01;;;;;;;34.72;22.23;;;6.40;99.90;;;;;;5091646;28;20104;-62
2022/03/22 04:36:30;;;;;;;39.58;22.85;;;6.50;99.90;;;;;;5073783;28;20027;-66
2022/03/22 04:38:56;;;;;;;34.58;21.48;;;6.40;99.90;;;;;;5091564;28;20020;-65
2022/03/22 04:41:23;;;;;;;37.28;23.38;;;6.40;99.90;;;;;;5091604;28;20031;-66
2022/03/22 04:43:49;;;;;;;42.50;23.23;;;6.40;99.90;;;;;;5091691;28;20027;-66
2022/03/22 04:46:18;;;;;;;36.72;23.70;;;6.40;99.90;;;;;;5073272;28;20024;-65
2022/03/22 04:48:47;;;;;;;33.65;22.17;;;6.30;99.90;;;;;;5073995;28;20056;-65
2022/03/22 04:56:48;;;;;;;40.33;23.20;;;6.20;99.90;;;;;;5091616;28;20504;-66
2022/03/22 04:59:15;;;;;;;37.08;22.83;;;6.20;99.90;;;;;;5073262;28;20066;-66
2022/03/22 05:01:42;;;;;;;36.17;23.37;;;6.20;99.90;;;;;;5091282;28;20032;-64
2022/03/22 05:04:10;;;;;;;35.80;21.75;;;6.20;99.90;;;;;;5090928;28;20027;-67
2022/03/22 05:06:39;;;;;;;38.40;23.50;;;6.10;99.90;;;;;;5091153;28;20040;-66
2022/03/22 05:09:05;;;;;;;37.38;23.15;;;6.10;99.90;;;;;;5072938;28;20024;-64
2022/03/22 05:11:31;;;;;;;40.35;23.90;;;6.10;99.90;;;;;;5073050;28;20024;-64
2022/03/22 05:13:58;;;;;;;37.65;23.33;;;6.00;99.90;;;;;;5090971;28;20067;-67
2022/03/22 05:16:24;;;;;;;36.90;23.45;;;6.00;99.90;;;;;;5090742;28;20412;-66
2022/03/22 05:18:50;;;;;;;37.55;21.77;;;6.00;99.90;;;;;;5090124;28;20024;-64
2022/03/22 05:21:17;;;;;;;40.78;23.60;;;6.00;99.90;;;;;;5090966;28;20539;-64
2022/03/22 05:23:45;;;;;;;53.03;37.45;;;6.00;99.90;;;;;;5091113;28;20024;-64
2022/03/22 05:26:11;;;;;;;44.67;25.63;;;6.00;99.90;;;;;;5072378;28;20043;-65
2022/03/22 05:28:39;;;;;;;41.47;23.42;;;6.00;99.90;;;;;;5090496;28;20266;-65
2022/03/22 05:31:08;;;;;;;43.63;25.13;;;6.10;99.90;;;;;;5072691;28;20136;-67
2022/03/22 05:33:34;;;;;;;41.33;24.25;;;6.10;99.90;;;;;;5090717;28;20086;-65
2022/03/22 05:36:00;;;;;;;37.13;22.90;;;6.00;99.90;;;;;;5072567;28;20028;-65
2022/03/22 05:38:26;;;;;;;45.00;24.45;;;6.00;99.90;;;;;;5090786;28;20112;-66
2022/03/22 05:40:52;;;;;;;47.72;23.95;;;6.10;99.90;;;;;;5090447;28;20032;-66
2022/03/22 05:43:18;;;;;;;46.70;23.23;;;6.00;99.90;;;;;;5072534;28;20054;-66
2022/03/22 05:45:51;;;;;;;45.40;23.02;;;6.10;99.90;;;;;;5090236;28;20436;-67
2022/03/22 05:48:18;;;;;;;47.70;24.58;;;6.30;99.90;;;;;;5090352;28;20487;-65
2022/03/22 05:50:44;;;;;;;39.85;20.90;;;6.40;99.90;;;;;;5090329;28;20123;-65
2022/03/22 05:53:12;;;;;;;43.72;23.90;;;6.50;99.90;;;;;;5090202;28;20054;-66
2022/03/22 05:55:38;;;;;;;41.70;23.00;;;6.60;99.90;;;;;;5090290;28;20426;-66
2022/03/22 05:58:05;;;;;;;39.85;24.33;;;6.70;99.90;;;;;;5090544;28;20072;-63
2022/03/22 06:00:31;;;;;;;38.55;23.85;;;6.80;99.90;;;;;;5090090;28;20150;-65
2022/03/22 06:02:57;;;;;;;36.13;21.88;;;7.00;99.90;;;;;;5093672;28;20020;-63
2022/03/22 06:05:22;;;;;;;39.25;22.55;;;7.10;99.90;;;;;;5095478;28;20039;-63
2022/03/22 06:07:49;;;;;;;45.22;22.42;;;7.10;99.90;;;;;;5095475;28;20020;-64
2022/03/22 06:10:14;;;;;;;41.60;22.75;;;7.10;99.90;;;;;;5077779;28;20077;-61
2022/03/22 06:12:44;;;;;;;41.63;22.95;;;7.20;99.90;;;;;;5077406;28;20032;-63
2022/03/22 06:15:19;;;;;;;40.83;22.83;;;7.30;99.90;;;;;;5077232;28;20024;-60
2022/03/22 06:17:49;;;;;;;36.90;22.27;;;7.30;99.90;;;;;;5095661;28;20024;-61
2022/03/22 06:20:17;;;;;;;37.08;20.48;;;7.40;99.90;;;;;;5094092;28;20024;-62
2022/03/22 06:22:42;;;;;;;46.72;23.00;;;7.50;99.90;;;;;;5094079;28;20028;-62
2022/03/22 06:25:09;;;;;;;37.50;21.98;;;7.50;99.90;;;;;;5093574;28;20031;-62
2022/03/22 06:27:36;;;;;;;36.47;22.00;;;7.60;99.90;;;;;;5093481;28;20032;-62
2022/03/22 06:30:06;;;;;;;35.65;23.05;;;7.60;99.90;;;;;;5096839;28;20016;-64
2022/03/22 06:32:38;;;;;;;41.35;23.60;;;7.60;99.90;;;;;;5097105;28;20107;-64
2022/03/22 06:35:05;;;;;;;37.03;23.40;;;7.50;99.90;;;;;;5097442;28;20051;-64
2022/03/22 06:37:30;;;;;;;39.13;23.23;;;7.50;99.90;;;;;;5092258;28;20471;-64
2022/03/22 06:39:56;;;;;;;39.75;23.90;;;7.50;99.90;;;;;;5089815;28;20032;-64
2022/03/22 06:42:22;;;;;;;39.30;23.45;;;7.50;99.90;;;;;;5097581;28;20035;-63
2022/03/22 06:44:48;;;;;;;38.97;23.77;;;7.50;99.90;;;;;;5078443;28;20128;-64
2022/03/22 06:47:14;;;;;;;40.33;23.23;;;7.60;99.90;;;;;;5097185;28;20388;-63
2022/03/22 06:49:40;;;;;;;39.80;23.88;;;7.60;99.90;;;;;;5097128;28;20021;-65
2022/03/22 06:52:06;;;;;;;40.53;23.92;;;7.60;99.90;;;;;;5097199;28;20089;-62
2022/03/22 06:54:32;;;;;;;40.53;22.63;;;7.60;99.90;;;;;;5086183;28;20492;-63
2022/03/22 06:56:58;;;;;;;36.15;22.02;;;7.70;99.90;;;;;;5076304;28;20040;-62
2022/03/22 06:59:25;;;;;;;36.97;21.77;;;7.70;99.90;;;;;;5075510;28;20028;-63
2022/03/22 07:01:50;;;;;;;38.83;21.63;;;7.80;99.90;;;;;;5057368;28;20036;-63
2022/03/22 07:04:16;;;;;;;32.80;21.70;;;7.80;99.90;;;;;;5081086;28;20031;-63
2022/03/22 07:06:41;;;;;;;34.80;21.52;;;7.90;99.90;;;;;;5090870;22;20077;-64
2022/03/22 07:09:07;;;;;;;35.38;22.38;;;8.00;99.90;;;;;;5094227;28;20115;-64
2022/03/22 07:11:51;;;;;;;37.78;21.40;;;8.00;99.90;;;;;;5086871;28;20392;-64
2022/03/22 07:14:21;;;;;;;39.70;23.23;;;8.10;99.90;;;;;;5094632;28;20016;-66
2022/03/22 07:16:47;;;;;;;33.75;21.08;;;8.30;99.90;;;;;;5094472;28;20548;-66
2022/03/22 07:19:17;;;;;;;37.03;21.02;;;8.40;99.90;;;;;;5094271;28;20027;-66
2022/03/22 07:21:44;;;;;;;34.30;22.17;;;8.50;99.90;;;;;;5094623;28;20155;-65
2022/03/22 07:24:11;;;;;;;81.28;50.65;;;8.60;99.90;;;;;;5094643;28;20076;-67
2022/03/22 07:26:37;;;;;;;54.95;34.97;;;8.80;99.90;;;;;;5094289;28;20035;-64
2022/03/22 07:29:04;;;;;;;38.05;21.77;;;8.90;99.90;;;;;;5092622;28;20127;-65
2022/03/22 07:31:30;;;;;;;38.45;24.52;;;9.00;99.90;;;;;;5094291;28;20016;-63
2022/03/22 07:33:56;;;;;;;41.22;25.27;;;9.10;99.90;;;;;;5093826;28;20047;-59
2022/03/22 07:36:22;;;;;;;37.03;23.48;;;9.20;99.90;;;;;;5092846;28;20107;-62
2022/03/22 07:38:48;;;;;;;34.97;21.50;;;9.40;99.60;;;;;;5073269;28;20577;-63
2022/03/22 07:41:14;;;;;;;42.03;22.48;;;9.50;98.80;;;;;;5073080;28;20025;-63
2022/03/22 07:43:41;;;;;;;38.92;23.10;;;;;;;;;;5073741;28;20031;-64
2022/03/22 07:46:10;;;;;;;33.28;20.92;;;;;;;;;;5073628;28;20055;-64
2022/03/22 07:48:36;;;;;;;36.88;21.05;;;;;;;;;;5071949;28;20028;-63
2022/03/22 07:53:46;;;;;;;34.85;22.13;;;;;;;;;;5073568;28;20168;-65
2022/03/22 07:56:12;;;;;;;34.85;22.05;;;;;;;;;;5073283;28;20495;-64
2022/03/22 07:58:38;;;;;;;36.33;21.48;;;9.60;98.60;;;;;;5073922;28;20039;-64
2022/03/22 08:01:04;;;;;;;37.72;21.60;;;10.40;95.70;;;;;;5073748;28;20103;-65
2022/03/22 08:03:30;;;;;;;30.92;19.30;;;10.50;95.10;;;;;;5072335;28;20024;-66
2022/03/22 08:05:55;;;;;;;33.17;21.85;;;10.60;94.80;;;;;;5073385;28;20447;-67
2022/03/22 08:08:21;;;;;;;32.53;20.25;;;10.70;94.40;;;;;;5073248;28;20052;-63
2022/03/22 08:10:47;;;;;;;31.58;20.38;;;10.80;94.20;;;;;;5076623;28;20023;-65
2022/03/22 08:13:14;;;;;;;34.10;21.20;;;10.90;93.80;;;;;;5093731;28;20028;-65
2022/03/22 08:15:40;;;;;;;30.77;19.00;;;11.00;92.70;;;;;;5092318;28;20483;-63
2022/03/22 08:18:06;;;;;;;29.25;19.42;;;11.20;92.20;;;;;;5092333;28;20445;-65
2022/03/22 08:20:32;;;;;;;27.75;18.38;;;11.30;92.20;;;;;;5093275;28;20103;-65
2022/03/22 08:23:03;;;;;;;33.42;19.58;;;11.40;91.60;;;;;;5093831;28;20097;-68
2022/03/22 08:25:32;;;;;;;32.92;22.50;;;11.50;91.00;;;;;;5092447;28;20391;-66
2022/03/22 08:27:59;;;;;;;28.98;20.13;;;11.70;90.70;;;;;;5091602;28;20024;-64
2022/03/22 08:30:26;;;;;;;30.63;17.80;;;11.80;90.50;;;;;;5072866;28;20020;-63
2022/03/22 08:32:58;;;;;;;31.38;19.15;;;11.80;89.20;;;;;;5071794;28;20047;-65
2022/03/22 08:35:25;;;;;;;31.67;17.73;;;12.00;87.90;;;;;;5073077;28;20024;-64
2022/03/22 08:37:51;;;;;;;26.55;17.52;;;12.10;87.40;;;;;;5071832;28;20046;-65
2022/03/22 08:40:17;;;;;;;26.10;16.70;;;12.30;84.00;;;;;;5073686;28;20025;-65
2022/03/22 08:42:45;;;;;;;28.83;17.48;;;12.40;84.90;;;;;;5073070;28;20031;-64
2022/03/22 08:45:19;;;;;;;26.30;17.25;;;12.40;84.10;;;;;;5073059;28;20025;-63
2022/03/22 08:47:47;;;;;;;27.30;17.83;;;12.50;82.80;;;;;;5073069;28;20044;-64
2022/03/22 08:50:17;;;;;;;26.10;16.98;;;12.70;81.30;;;;;;5072657;28;20391;-63
2022/03/22 08:52:44;;;;;;;27.65;17.83;;;12.80;79.50;;;;;;5070597;28;20024;-64
2022/03/22 08:55:12;;;;;;;28.40;17.75;;;13.00;79.60;;;;;;5072781;28;20120;-65
2022/03/22 08:57:40;;;;;;;28.85;18.05;;;13.10;78.70;;;;;;5072489;28;20103;-65
2022/03/22 09:00:09;;;;;;;31.00;17.75;;;13.10;78.80;;;;;;5072406;28;20027;-65
2022/03/22 09:02:43;;;;;;;27.60;17.73;;;13.20;77.80;;;;;;5073271;28;20029;-65
2022/03/22 09:07:58;;;;;;;25.40;17.17;;;13.50;77.00;;;;;;5072791;28;20083;-66
2022/03/22 09:10:25;;;;;;;27.05;17.58;;;13.60;75.00;;;;;;5072740;28;20070;-65
2022/03/22 09:12:51;;;;;;;26.77;17.70;;;13.60;74.30;;;;;;5088436;28;20400;-65
2022/03/22 09:15:18;;;;;;;26.00;17.02;;;13.80;74.00;;;;;;5071400;28;20020;-65
2022/03/22 09:17:44;;;;;;;24.15;17.55;;;13.90;73.40;;;;;;5072635;28;20506;-64
2022/03/22 09:20:14;;;;;;;26.23;16.80;;;13.90;72.10;;;;;;5072194;28;20493;-63
2022/03/22 09:22:43;;;;;;;28.80;17.65;;;14.00;71.60;;;;;;5072859;28;20040;-63
2022/03/22 09:25:12;;;;;;;27.25;18.13;;;14.10;72.20;;;;;;5071162;28;20027;-64
2022/03/22 09:27:38;;;;;;;26.90;17.70;;;14.20;71.30;;;;;;5072328;28;20024;-62
2022/03/22 09:30:05;;;;;;;28.10;18.92;;;;;;;;;;5070646;28;20400;-60
2022/03/22 09:32:31;;;;;;;26.58;17.50;;;14.40;70.80;;;;;;5072068;28;20468;-63
2022/03/22 09:34:59;;;;;;;26.25;17.50;;;14.70;70.60;;;;;;5070749;28;20650;-62
2022/03/22 09:37:26;;;;;;;24.02;16.50;;;14.70;69.30;;;;;;5072197;28;20036;-63
2022/03/22 09:39:51;;;;;;;24.83;17.10;;;14.80;67.60;;;;;;5072094;28;20051;-62
2022/03/22 09:42:17;;;;;;;25.02;17.20;;;14.70;67.00;;;;;;5072439;28;20033;-60
2022/03/22 09:44:48;;;;;;;24.92;17.00;;;14.70;66.80;;;;;;5072460;28;20021;-60
2022/03/22 09:47:15;;;;;;;27.83;17.73;;;14.90;66.70;;;;;;5072135;28;20651;-61
2022/03/22 09:49:40;;;;;;;25.35;16.63;;;15.00;66.60;;;;;;5072117;28;20036;-58
2022/03/22 09:52:07;;;;;;;26.08;16.85;;;15.10;65.80;;;;;;5071085;28;20021;-62
2022/03/22 09:54:32;;;;;;;27.13;18.02;;;15.30;66.00;;;;;;5071369;28;20029;-63
2022/03/22 09:56:58;;;;;;;26.33;16.10;;;15.50;66.10;;;;;;5072016;28;20401;-65
2022/03/22 09:59:24;;;;;;;28.27;18.42;;;15.60;64.70;;;;;;5087534;28;20029;-63
2022/03/22 10:01:49;;;;;;;24.80;17.70;;;15.60;63.70;;;;;;5070846;28;20025;-63
2022/03/22 10:04:15;;;;;;;23.48;16.75;;;15.70;64.10;;;;;;5072215;28;20052;-63
2022/03/22 10:06:47;;;;;;;24.55;17.65;;;15.80;63.80;;;;;;5075833;28;20490;-64
2022/03/22 10:09:12;;;;;;;29.52;19.33;;;16.00;63.90;;;;;;5076566;28;20031;-63
2022/03/22 10:11:42;;;;;;;26.05;17.10;;;16.10;62.70;;;;;;5075983;28;20020;-65
2022/03/22 10:14:10;;;;;;;28.17;17.60;;;16.30;61.20;;;;;;5075356;28;20026;-63
2022/03/22 10:16:51;;;;;;;25.40;18.48;;;16.40;61.40;;;;;;5075616;28;20051;-63
2022/03/22 10:19:22;;;;;;;26.17;17.27;;;16.50;61.50;;;;;;5075263;28;20036;-63
2022/03/22 10:21:48;;;;;;;25.30;17.42;;;16.60;60.50;;;;;;5073862;28;20119;-65
2022/03/22 10:24:15;;;;;;;26.85;17.42;;;16.50;60.40;;;;;;5074803;28;20119;-64
2022/03/22 10:26:44;;;;;;;27.20;17.17;;;16.60;61.40;;;;;;5055794;28;20033;-67
2022/03/22 10:29:11;;;;;;;29.70;18.90;;;16.80;61.60;;;;;;5053637;28;20096;-67
2022/03/22 10:31:39;;;;;;;26.10;18.05;;;16.90;60.80;;;;;;5053998;28;20390;-66
2022/03/22 10:34:05;;;;;;;28.65;18.92;;;17.10;61.20;;;;;;5053953;28;20432;-65
2022/03/22 10:36:36;;;;;;;31.25;18.00;;;17.10;59.30;;;;;;5054705;28;20029;-64
2022/03/22 10:39:07;;;;;;;26.42;17.90;;;17.10;60.20;;;;;;5065908;28;20028;-67
2022/03/22 10:41:37;;;;;;;29.10;18.55;;;17.10;59.70;;;;;;5074882;28;20507;-68
2022/03/22 10:44:09;;;;;;;27.45;18.20;;;17.40;59.50;;;;;;5074659;28;20036;-67
2022/03/22 10:46:36;;;;;;;27.35;18.02;;;17.20;58.80;;;;;;5073078;28;20024;-66
2022/03/22 10:49:19;;;;;;;29.15;19.60;;;17.50;59.40;;;;;;5075214;28;20150;-67
2022/03/22 10:51:47;;;;;;;29.60;18.63;;;17.70;59.90;;;;;;5074721;28;20077;-67
2022/03/22 10:54:17;;;;;;;29.60;18.53;;;17.80;58.30;;;;;;5075089;28;20024;-68
2022/03/22 10:56:48;;;;;;;28.35;19.80;;;17.80;58.70;;;;;;5074620;28;20591;-64
2022/03/22 10:59:16;;;;;;;27.45;19.25;;;18.00;60.10;;;;;;5074845;28;20039;-64
2022/03/22 11:01:44;;;;;;;30.35;19.73;;;18.00;59.80;;;;;;5073429;28;20025;-67
2022/03/22 11:04:10;;;;;;;27.25;18.50;;;18.00;60.60;;;;;;5074239;28;20483;-67
2022/03/22 11:06:38;;;;;;;28.30;18.70;;;17.50;60.90;;;;;;5073296;28;20086;-68
2022/03/22 11:09:04;;;;;;;27.63;18.65;;;17.60;61.00;;;;;;5075333;28;20021;-67
2022/03/22 11:11:31;;;;;;;32.45;21.08;;;17.70;62.40;;;;;;5075249;28;20104;-67
2022/03/22 11:13:57;;;;;;;27.58;19.55;;;18.20;60.60;;;;;;5075437;28;20032;-68
2022/03/22 11:16:26;;;;;;;26.60;18.40;;;19.00;59.80;;;;;;5073788;28;20052;-67
2022/03/22 11:18:54;;;;;;;28.65;20.15;;;19.80;59.00;;;;;;5073921;28;20044;-67
2022/03/22 11:21:19;;;;;;;30.85;20.73;;;20.40;57.70;;;;;;5074439;28;20533;-66
2022/03/22 11:23:47;;;;;;;28.15;20.33;;;21.20;56.90;;;;;;5074916;28;20052;-66
2022/03/22 11:26:18;;;;;;;29.98;20.45;;;22.10;56.50;;;;;;5089562;28;20029;-66
2022/03/22 11:28:48;;;;;;;33.28;21.23;;;22.40;55.60;;;;;;5074469;28;20278;-66
2022/03/22 11:31:16;;;;;;;30.23;22.30;;;22.90;54.80;;;;;;5072493;28;20032;-67
2022/03/22 11:36:39;;;;;;;32.00;22.15;;;23.00;52.70;;;;;;5074389;28;20040;-68
2022/03/22 11:39:05;;;;;;;28.95;23.20;;;23.90;53.00;;;;;;5073928;28;20029;-66
2022/03/22 11:45:00;;;;;;;30.88;22.00;;;24.80;50.90;;;;;;5073695;28;20036;-66
2022/03/22 11:47:37;;;;;;;31.23;22.98;;;24.60;50.80;;;;;;5070315;28;20071;-65
2022/03/22 11:50:09;;;;;;;30.92;24.27;;;25.20;49.60;;;;;;5074172;28;20367;-65
2022/03/22 11:52:40;;;;;;;29.10;22.92;;;25.20;49.90;;;;;;5073826;28;20061;-66
2022/03/22 11:55:08;;;;;;;30.42;23.50;;;25.40;49.20;;;;;;5075566;28;20024;-66
2022/03/22 11:57:49;;;;;;;34.42;24.02;;;25.90;47.60;;;;;;5073138;28;20384;-66
2022/03/22 12:00:21;;;;;;;32.63;25.13;;;26.10;47.50;;;;;;5073061;28;20082;-66
2022/03/22 12:02:53;;;;;;;28.65;23.13;;;26.00;46.40;;;;;;5073600;28;20044;-66
2022/03/22 12:05:22;;;;;;;29.52;22.80;;;26.20;46.10;;;;;;5079453;28;20027;-69
2022/03/22 12:07:50;;;;;;;33.95;24.63;;;26.10;45.50;;;;;;5093026;28;20028;-66
2022/03/22 12:10:18;;;;;;;30.77;22.67;;;26.20;46.20;;;;;;5093973;28;20031;-66
2022/03/22 12:12:49;;;;;;;28.42;23.15;;;26.70;45.30;;;;;;5092258;28;20031;-66
2022/03/22 12:15:17;;;;;;;29.00;23.08;;;27.50;44.60;;;;;;5093482;28;20153;-65
2022/03/22 12:17:44;;;;;;;28.90;23.75;;;27.50;45.00;;;;;;5092682;28;20024;-67
2022/03/22 12:20:12;;;;;;;32.58;25.05;;;27.30;43.60;;;;;;5090789;28;20024;-66
2022/03/22 12:22:43;;;;;;;30.92;24.52;;;27.40;43.60;;;;;;5092186;28;20027;-66
2022/03/22 12:25:12;;;;;;;29.52;22.83;;;27.40;44.70;;;;;;5092019;28;20016;-66
2022/03/22 12:28:09;;;;;;;42.22;37.30;;;27.90;43.70;;;;;;5090987;28;20031;-66
2022/03/22 12:30:38;;;;;;;29.35;23.75;;;27.50;44.00;;;;;;5090783;28;20365;-66
2022/03/22 12:33:07;;;;;;;40.45;24.45;;;27.20;43.70;;;;;;5058721;28;20044;-65
2022/03/22 12:35:34;;;;;;;30.30;24.30;;;26.40;43.80;;;;;;5053329;28;20386;-68
2022/03/22 12:38:00;;;;;;;30.75;23.88;;;27.30;44.60;;;;;;5054249;28;20366;-66
2022/03/22 12:40:26;;;;;;;30.13;23.08;;;27.60;43.50;;;;;;5053252;28;20025;-67
2022/03/22 12:42:53;;;;;;;28.83;22.70;;;27.80;44.30;;;;;;5068794;28;20024;-67
2022/03/22 12:45:21;;;;;;;32.03;24.90;;;28.40;43.60;;;;;;5052759;28;20032;-67
2022/03/22 12:47:50;;;;;;;31.00;23.63;;;28.20;41.70;;;;;;5068784;28;20064;-65
2022/03/22 12:50:18;;;;;;;32.78;23.25;;;28.30;41.70;;;;;;4708380;28;9999746;-71
2022/03/22 12:52:44;;;;;;;32.35;24.05;;;28.60;41.60;;;;;;5067994;28;20028;-65
2022/03/22 12:55:11;;;;;;;30.38;24.60;;;29.00;41.80;;;;;;5051901;28;20030;-66
2022/03/22 12:57:41;;;;;;;30.70;24.37;;;28.30;42.40;;;;;;5055170;28;20396;-67
2022/03/22 13:00:08;;;;;;;31.73;23.85;;;28.50;42.30;;;;;;5070995;28;20907;-68
2022/03/22 13:02:40;;;;;;;29.10;23.83;;;29.30;41.60;;;;;;5069447;28;20028;-62
2022/03/22 13:05:06;;;;;;;29.13;23.80;;;28.90;41.30;;;;;;5068947;28;20025;-65